createdAt,value
2023-03-26T00:01:10.770Z,17.02
2023-03-26T00:03:39.065Z,16.00
2023-03-26T00:06:10.412Z,13.60
2023-03-26T00:08:38.444Z,13.30
2023-03-26T00:11:06.684Z,10.50
2023-03-26T00:13:34.198Z,11.98
2023-03-26T00:16:01.840Z,15.00
2023-03-26T00:18:31.936Z,13.15
2023-03-26T00:20:59.710Z,19.33
2023-03-26T00:23:28.284Z,12.73
2023-03-26T00:25:56.128Z,16.20
2023-03-26T00:28:23.927Z,14.18
2023-03-26T00:30:57.558Z,14.75
2023-03-26T00:33:24.777Z,12.30
2023-03-26T00:35:56.727Z,11.98
2023-03-26T00:38:24.083Z,10.60
2023-03-26T00:40:51.653Z,13.98
2023-03-26T00:43:19.797Z,17.08
2023-03-26T00:45:47.974Z,19.83
2023-03-26T00:48:15.788Z,13.65
2023-03-26T00:50:44.596Z,14.10
2023-03-26T00:53:12.141Z,17.88
2023-03-26T00:55:40.087Z,13.27
2023-03-26T00:58:10.270Z,13.60
2023-03-26T01:00:39.301Z,15.60
2023-03-26T01:03:06.936Z,13.48
2023-03-26T01:05:34.178Z,14.57
2023-03-26T01:08:27.542Z,15.07
2023-03-26T01:11:02.688Z,8.85
2023-03-26T01:13:32.446Z,15.02
2023-03-26T01:16:02.001Z,11.75
2023-03-26T01:18:33.861Z,18.98
2023-03-26T01:21:05.315Z,11.43
2023-03-26T01:23:38.026Z,16.23
2023-03-26T01:26:11.411Z,13.27
2023-03-26T01:28:41.306Z,14.27
2023-03-26T01:31:17.302Z,15.45
2023-03-26T01:33:54.355Z,13.77
2023-03-26T01:36:23.878Z,20.00
2023-03-26T01:39:18.660Z,16.10
2023-03-26T01:41:47.517Z,13.43
2023-03-26T01:44:22.889Z,15.27
2023-03-26T01:46:50.642Z,18.63
2023-03-26T01:49:18.893Z,14.43
2023-03-26T01:51:47.552Z,15.90
2023-03-26T01:54:17.192Z,18.13
2023-03-26T01:57:02.959Z,13.15
2023-03-26T01:59:42.058Z,14.70
2023-03-26T02:02:14.460Z,13.82
2023-03-26T02:04:53.137Z,13.60
2023-03-26T02:07:34.553Z,17.88
2023-03-26T02:10:06.077Z,16.60
2023-03-26T02:12:33.625Z,19.48
2023-03-26T02:15:02.226Z,19.42
2023-03-26T02:17:32.542Z,18.45
2023-03-26T02:20:04.818Z,17.42
2023-03-26T02:22:32.394Z,15.95
2023-03-26T02:24:59.752Z,17.48
2023-03-26T02:27:26.982Z,15.35
2023-03-26T02:29:54.386Z,23.88
2023-03-26T02:32:23.424Z,13.85
2023-03-26T02:34:53.170Z,16.95
2023-03-26T02:37:20.696Z,19.02
2023-03-26T02:39:52.954Z,17.02
2023-03-26T02:42:30.159Z,26.50
2023-03-26T02:44:57.371Z,17.38
2023-03-26T02:47:47.323Z,16.88
2023-03-26T02:50:36.671Z,20.92
2023-03-26T02:53:23.914Z,23.30
2023-03-26T02:55:58.523Z,19.00
2023-03-26T02:58:26.870Z,16.10
2023-03-26T03:00:56.071Z,18.98
2023-03-26T03:03:29.858Z,26.33
2023-03-26T03:06:18.859Z,18.30
2023-03-26T03:08:58.273Z,18.38
2023-03-26T03:11:34.096Z,13.57
2023-03-26T03:14:01.269Z,22.80
2023-03-26T03:16:30.336Z,22.15
2023-03-26T03:19:01.804Z,17.15
2023-03-26T03:21:37.285Z,22.60
2023-03-26T03:24:04.686Z,19.73
2023-03-26T03:26:36.520Z,19.52
2023-03-26T03:29:32.878Z,22.08
2023-03-26T03:32:19.709Z,18.67
2023-03-26T03:34:50.650Z,29.58
2023-03-26T03:37:19.192Z,25.45
2023-03-26T03:39:51.846Z,24.92
2023-03-26T03:42:21.847Z,21.42
2023-03-26T03:44:51.446Z,26.60
2023-03-26T03:47:57.141Z,34.63
2023-03-26T03:50:34.325Z,27.67
2023-03-26T03:53:26.387Z,37.33
2023-03-26T03:55:59.594Z,29.85
2023-03-26T03:58:45.437Z,25.10
2023-03-26T04:01:17.202Z,36.42
2023-03-26T04:03:56.072Z,27.05
2023-03-26T04:06:30.078Z,26.58
2023-03-26T04:08:57.652Z,34.40
2023-03-26T04:11:24.999Z,31.27
2023-03-26T04:14:10.243Z,37.97
2023-03-26T04:16:51.200Z,37.03
2023-03-26T04:19:18.536Z,30.38
2023-03-26T04:21:45.735Z,30.98
2023-03-26T04:24:13.632Z,29.20
2023-03-26T04:27:14.178Z,32.88
2023-03-26T04:29:43.705Z,26.63
2023-03-26T04:32:24.484Z,26.38
2023-03-26T04:34:52.439Z,32.50
2023-03-26T04:37:27.422Z,29.17
2023-03-26T04:40:10.376Z,34.95
2023-03-26T04:42:45.993Z,38.42
2023-03-26T04:45:23.450Z,33.80
2023-03-26T04:47:58.336Z,28.60
2023-03-26T04:50:26.764Z,22.90
2023-03-26T04:52:56.648Z,25.35
2023-03-26T04:56:01.936Z,37.40
2023-03-26T04:58:50.332Z,29.80
2023-03-26T05:01:17.682Z,29.65
2023-03-26T05:03:46.303Z,33.47
2023-03-26T05:06:16.249Z,24.48
2023-03-26T05:08:43.410Z,24.83
2023-03-26T05:11:18.881Z,35.15
2023-03-26T05:13:46.962Z,28.75
2023-03-26T05:16:14.709Z,31.30
2023-03-26T05:18:48.329Z,33.40
2023-03-26T05:21:16.136Z,31.20
2023-03-26T05:23:43.525Z,27.38
2023-03-26T05:26:29.226Z,33.38
2023-03-26T05:28:57.215Z,29.42
2023-03-26T05:31:32.165Z,37.60
2023-03-26T05:34:00.879Z,30.55
2023-03-26T05:36:28.695Z,41.33
2023-03-26T05:39:29.840Z,23.98
2023-03-26T05:42:16.161Z,27.13
2023-03-26T05:45:03.565Z,30.40
2023-03-26T05:47:33.286Z,27.00
2023-03-26T05:50:00.696Z,30.00
2023-03-26T05:52:28.309Z,32.75
2023-03-26T05:55:16.024Z,29.13
2023-03-26T05:58:01.900Z,25.67
2023-03-26T06:03:22.911Z,31.50
2023-03-26T06:06:08.587Z,34.03
2023-03-26T06:08:46.790Z,31.35
2023-03-26T06:11:14.196Z,28.65
2023-03-26T06:13:41.446Z,26.13
2023-03-26T06:16:09.411Z,31.77
2023-03-26T06:18:57.845Z,34.90
2023-03-26T06:21:43.746Z,31.98
2023-03-26T06:24:19.769Z,34.55
2023-03-26T06:27:12.919Z,36.05
2023-03-26T06:30:03.005Z,28.05
2023-03-26T06:32:53.416Z,33.63
2023-03-26T06:35:25.300Z,31.77
2023-03-26T06:37:52.980Z,23.88
2023-03-26T06:40:20.222Z,24.90
2023-03-26T06:43:10.189Z,36.85
2023-03-26T06:45:54.410Z,35.90
2023-03-26T06:48:42.026Z,38.55
2023-03-26T06:51:27.764Z,28.95
2023-03-26T06:54:15.295Z,32.60
2023-03-26T06:56:52.276Z,29.75
2023-03-26T06:59:22.338Z,28.60
2023-03-26T07:02:27.696Z,26.50
2023-03-26T07:05:13.817Z,28.48
2023-03-26T07:07:59.702Z,31.35
2023-03-26T07:10:45.074Z,28.02
2023-03-26T07:13:48.304Z,29.10
2023-03-26T07:19:06.388Z,27.42
2023-03-26T07:21:36.614Z,36.75
2023-03-26T07:24:11.546Z,31.90
2023-03-26T07:27:07.349Z,28.13
2023-03-26T07:29:47.109Z,33.75
2023-03-26T07:32:35.316Z,30.00
2023-03-26T07:35:22.938Z,31.75
2023-03-26T07:38:42.503Z,35.97
2023-03-26T07:41:41.580Z,37.05
2023-03-26T07:44:51.507Z,31.08
2023-03-26T07:47:42.627Z,39.08
2023-03-26T07:50:35.921Z,32.90
2023-03-26T07:53:23.445Z,36.25
2023-03-26T07:56:35.941Z,34.70
2023-03-26T07:59:26.246Z,25.05
2023-03-26T08:02:45.596Z,32.28
2023-03-26T08:05:55.160Z,31.55
2023-03-26T08:09:07.680Z,29.75
2023-03-26T08:12:21.061Z,31.33
2023-03-26T08:14:52.588Z,30.25
2023-03-26T08:17:39.974Z,26.88
2023-03-26T08:20:48.869Z,32.28
2023-03-26T08:23:51.857Z,28.92
2023-03-26T08:26:39.228Z,31.17
2023-03-26T08:29:12.566Z,34.50
2023-03-26T08:31:41.214Z,30.40
2023-03-26T08:34:12.041Z,27.60
2023-03-26T08:36:39.333Z,34.63
2023-03-26T08:39:06.581Z,30.42
2023-03-26T08:41:36.819Z,37.20
2023-03-26T08:44:16.566Z,30.50
2023-03-26T08:46:53.397Z,33.22
2023-03-26T08:49:51.626Z,38.33
2023-03-26T08:52:18.926Z,36.97
2023-03-26T08:55:04.290Z,33.58
2023-03-26T08:58:08.889Z,30.45
2023-03-26T09:00:43.523Z,35.50
2023-03-26T09:03:22.692Z,32.92
2023-03-26T09:05:49.806Z,32.17
2023-03-26T09:08:30.147Z,28.85
2023-03-26T09:11:16.730Z,30.38
2023-03-26T09:14:12.629Z,30.70
2023-03-26T09:16:58.095Z,34.38
2023-03-26T09:19:25.215Z,31.15
2023-03-26T09:22:08.200Z,29.95
2023-03-26T09:24:35.393Z,27.55
2023-03-26T09:27:14.677Z,28.50
2023-03-26T09:32:38.060Z,25.75
2023-03-26T09:35:42.109Z,33.38
2023-03-26T09:38:12.430Z,29.15
2023-03-26T09:40:53.396Z,25.13
2023-03-26T09:43:38.408Z,24.77
2023-03-26T09:46:05.560Z,23.20
2023-03-26T09:48:45.634Z,24.77
2023-03-26T09:51:26.111Z,26.48
2023-03-26T09:54:11.175Z,27.90
2023-03-26T09:56:42.110Z,29.13
2023-03-26T09:59:18.104Z,22.40
2023-03-26T10:01:59.464Z,23.67
2023-03-26T10:04:52.340Z,21.33
2023-03-26T10:07:40.939Z,25.60
2023-03-26T10:10:26.958Z,18.80
2023-03-26T10:13:11.630Z,18.63
2023-03-26T10:16:14.654Z,16.40
2023-03-26T10:18:42.201Z,20.70
2023-03-26T10:21:15.816Z,15.90
2023-03-26T10:23:42.973Z,14.38
2023-03-26T10:26:24.563Z,20.98
2023-03-26T10:28:51.740Z,17.48
2023-03-26T10:31:43.379Z,21.88
2023-03-26T10:34:28.898Z,18.08
2023-03-26T10:36:59.720Z,13.13
2023-03-26T10:39:44.932Z,16.95
2023-03-26T10:42:11.992Z,15.93
2023-03-26T10:44:43.458Z,13.82
2023-03-26T10:47:18.438Z,12.25
2023-03-26T10:50:04.056Z,12.90
2023-03-26T10:52:47.717Z,16.65
2023-03-26T10:55:19.887Z,17.08
2023-03-26T10:57:53.705Z,14.00
2023-03-26T11:00:26.118Z,14.13
2023-03-26T11:03:45.942Z,10.07
2023-03-26T11:06:27.993Z,16.45
2023-03-26T11:09:09.922Z,15.10
2023-03-26T11:11:55.912Z,12.13
2023-03-26T11:14:43.909Z,14.60
2023-03-26T11:17:41.448Z,13.52
2023-03-26T11:20:55.487Z,16.08
2023-03-26T11:24:04.715Z,15.57
2023-03-26T11:26:50.513Z,11.88
2023-03-26T11:29:32.803Z,13.55
2023-03-26T11:32:12.704Z,15.30
2023-03-26T11:34:46.008Z,14.57
2023-03-26T11:37:16.428Z,14.10
2023-03-26T11:39:51.425Z,11.02
2023-03-26T11:42:19.236Z,15.48
2023-03-26T11:45:06.568Z,17.13
2023-03-26T11:47:45.555Z,19.00
2023-03-26T11:50:17.647Z,19.10
2023-03-26T11:52:46.862Z,14.30
2023-03-26T11:55:14.499Z,13.60
2023-03-26T11:57:46.184Z,12.60
2023-03-26T12:00:19.406Z,15.50
2023-03-26T12:02:46.883Z,12.85
2023-03-26T12:05:14.053Z,13.98
2023-03-26T12:08:00.397Z,9.90
2023-03-26T12:10:37.554Z,16.35
2023-03-26T12:13:28.920Z,13.60
2023-03-26T12:16:01.901Z,10.80
2023-03-26T12:18:29.400Z,15.63
2023-03-26T12:21:04.756Z,13.18
2023-03-26T12:23:52.554Z,14.90
2023-03-26T12:26:41.392Z,13.35
2023-03-26T12:29:12.823Z,10.05
2023-03-26T12:31:53.138Z,12.38
2023-03-26T12:34:21.566Z,12.10
2023-03-26T12:36:50.427Z,13.57
2023-03-26T12:40:07.964Z,14.43
2023-03-26T12:44:46.779Z,13.07
2023-03-26T12:45:15.027Z,8.82
2023-03-26T12:48:00.460Z,13.38
2023-03-26T12:50:36.498Z,16.55
2023-03-26T12:53:09.343Z,12.18
2023-03-26T12:55:54.335Z,12.20
2023-03-26T12:58:33.800Z,10.00
2023-03-26T13:03:58.710Z,19.17
2023-03-26T13:06:59.948Z,11.65
2023-03-26T13:09:32.785Z,9.40
2023-03-26T13:12:09.187Z,7.55
2023-03-26T13:14:57.050Z,11.32
2023-03-26T13:17:28.003Z,13.18
2023-03-26T13:20:21.389Z,9.43
2023-03-26T13:23:00.758Z,14.13
2023-03-26T13:28:08.951Z,9.60
2023-03-26T13:30:48.008Z,11.93
2023-03-26T13:33:27.854Z,9.60
2023-03-26T13:36:19.198Z,9.68
2023-03-26T13:39:13.137Z,11.13
2023-03-26T13:41:49.477Z,18.35
2023-03-26T13:44:20.845Z,11.13
2023-03-26T13:46:50.743Z,16.45
2023-03-26T13:49:29.816Z,8.18
2023-03-26T13:52:00.086Z,11.43
2023-03-26T13:54:31.203Z,12.57
2023-03-26T13:57:22.888Z,11.30
2023-03-26T14:00:12.508Z,6.72
2023-03-26T14:02:53.985Z,13.05
2023-03-26T14:05:26.629Z,12.82
2023-03-26T14:07:57.278Z,9.25
2023-03-26T14:10:27.308Z,13.98
2023-03-26T14:13:01.179Z,14.75
2023-03-26T14:15:31.506Z,16.50
2023-03-26T14:18:07.888Z,12.27
2023-03-26T14:20:47.622Z,7.50
2023-03-26T14:23:46.463Z,6.13
2023-03-26T14:26:31.713Z,7.25
2023-03-26T14:29:10.803Z,15.75
2023-03-26T14:31:52.000Z,14.23
2023-03-26T14:34:30.764Z,8.85
2023-03-26T14:37:27.019Z,8.43
2023-03-26T14:40:17.045Z,6.82
2023-03-26T14:42:44.366Z,9.63
2023-03-26T14:45:38.899Z,7.20
2023-03-26T14:48:30.660Z,12.07
2023-03-26T14:51:19.179Z,7.60
2023-03-26T14:53:49.367Z,8.18
2023-03-26T14:56:27.130Z,18.30
2023-03-26T14:59:22.378Z,11.20
2023-03-26T15:01:49.499Z,10.73
2023-03-26T15:04:19.647Z,9.95
2023-03-26T15:06:58.809Z,8.95
2023-03-26T15:09:28.729Z,10.30
2023-03-26T15:12:15.546Z,11.68
2023-03-26T15:15:15.356Z,11.98
2023-03-26T15:17:51.351Z,10.00
2023-03-26T15:20:18.807Z,4.97
2023-03-26T15:23:03.264Z,6.95
2023-03-26T15:26:13.103Z,8.23
2023-03-26T15:28:46.433Z,9.80
2023-03-26T15:31:19.770Z,9.95
2023-03-26T15:33:57.118Z,6.43
2023-03-26T15:37:02.537Z,9.25
2023-03-26T15:39:30.030Z,6.45
2023-03-26T15:41:57.220Z,10.68
2023-03-26T15:44:47.195Z,9.20
2023-03-26T15:47:20.238Z,8.10
2023-03-26T15:49:52.150Z,14.57
2023-03-26T15:52:40.574Z,9.93
2023-03-26T15:55:11.252Z,10.73
2023-03-26T15:57:48.226Z,7.22
2023-03-26T16:00:16.241Z,11.07
2023-03-26T16:03:09.928Z,8.15
2023-03-26T16:05:40.473Z,12.93
2023-03-26T16:08:23.964Z,7.10
2023-03-26T16:11:02.527Z,8.32
2023-03-26T16:13:37.952Z,11.02
2023-03-26T16:16:06.863Z,6.75
2023-03-26T16:18:34.295Z,13.18
2023-03-26T16:21:30.485Z,9.57
2023-03-26T16:24:13.357Z,9.43
2023-03-26T16:26:52.485Z,10.32
2023-03-26T16:29:22.143Z,7.15
2023-03-26T16:32:07.600Z,15.25
2023-03-26T16:34:39.010Z,13.45
2023-03-26T16:37:08.670Z,9.30
2023-03-26T16:39:40.387Z,8.15
2023-03-26T16:42:16.282Z,10.40
2023-03-26T16:44:52.111Z,9.27
2023-03-26T16:47:25.695Z,8.77
2023-03-26T16:50:10.663Z,10.75
2023-03-26T16:52:42.519Z,7.43
2023-03-26T16:55:15.799Z,6.15
2023-03-26T17:00:35.191Z,10.70
2023-03-26T17:03:13.121Z,10.80
2023-03-26T17:06:20.892Z,7.82
2023-03-26T17:08:56.877Z,4.95
2023-03-26T17:11:43.397Z,12.45
2023-03-26T17:14:17.664Z,6.20
2023-03-26T17:16:48.690Z,7.95
2023-03-26T17:19:18.557Z,8.52
2023-03-26T17:21:51.054Z,11.10
2023-03-26T17:24:36.607Z,6.82
2023-03-26T17:27:45.975Z,10.80
2023-03-26T17:30:41.039Z,7.03
2023-03-26T17:33:27.868Z,6.10
2023-03-26T17:36:13.426Z,5.28
2023-03-26T17:38:40.563Z,4.03
2023-03-26T17:41:14.779Z,7.20
2023-03-26T17:43:49.966Z,9.00
2023-03-26T17:46:23.298Z,8.27
2023-03-26T17:48:54.546Z,6.53
2023-03-26T17:51:30.844Z,5.22
2023-03-26T17:53:58.425Z,5.65
2023-03-26T17:56:28.084Z,8.90
2023-03-26T17:59:00.822Z,11.43
2023-03-26T18:01:41.304Z,8.63
2023-03-26T18:04:25.826Z,7.45
2023-03-26T18:07:30.384Z,9.57
2023-03-26T18:10:06.640Z,7.32
2023-03-26T18:12:42.846Z,7.07
2023-03-26T18:15:39.530Z,6.90
2023-03-26T18:18:13.749Z,7.05
2023-03-26T18:20:43.751Z,6.40
2023-03-26T18:23:12.932Z,5.72
2023-03-26T18:25:41.037Z,6.78
2023-03-26T18:28:08.262Z,9.45
2023-03-26T18:30:46.482Z,6.05
2023-03-26T18:33:15.269Z,10.02
2023-03-26T18:35:42.601Z,6.72
2023-03-26T18:38:14.163Z,6.28
2023-03-26T18:40:42.497Z,7.63
2023-03-26T18:43:28.888Z,6.75
2023-03-26T18:46:02.165Z,7.38
2023-03-26T18:48:29.601Z,5.63
2023-03-26T18:51:06.627Z,11.40
2023-03-26T18:53:39.340Z,5.70
2023-03-26T18:56:19.340Z,8.65
2023-03-26T18:58:50.671Z,6.80
2023-03-26T19:01:25.377Z,6.00
2023-03-26T19:03:53.579Z,7.07
2023-03-26T19:06:20.957Z,7.35
2023-03-26T19:08:48.495Z,5.88
2023-03-26T19:11:17.469Z,7.60
2023-03-26T19:13:46.355Z,5.82
2023-03-26T19:16:24.884Z,7.90
2023-03-26T19:18:52.944Z,8.13
2023-03-26T19:21:23.111Z,10.45
2023-03-26T19:23:51.267Z,9.82
2023-03-26T19:26:19.042Z,6.50
2023-03-26T19:28:51.830Z,7.05
2023-03-26T19:31:35.913Z,7.72
2023-03-26T19:34:05.035Z,5.63
2023-03-26T19:36:34.481Z,7.32
2023-03-26T19:39:02.401Z,8.45
2023-03-26T19:41:39.815Z,7.47
2023-03-26T19:44:15.825Z,8.48
2023-03-26T19:46:53.803Z,5.68
2023-03-26T19:49:28.552Z,8.35
2023-03-26T19:52:04.092Z,6.47
2023-03-26T19:54:31.419Z,7.25
2023-03-26T19:56:58.601Z,5.05
2023-03-26T19:59:25.753Z,6.97
2023-03-26T20:01:55.812Z,8.23
2023-03-26T20:04:22.951Z,5.50
2023-03-26T20:06:52.660Z,6.55
2023-03-26T20:09:21.268Z,10.73
2023-03-26T20:11:49.576Z,5.43
2023-03-26T20:14:17.787Z,4.35
2023-03-26T20:16:46.004Z,7.85
2023-03-26T20:19:14.714Z,5.32
2023-03-26T20:21:42.371Z,5.60
2023-03-26T20:24:12.518Z,7.82
2023-03-26T20:26:39.712Z,5.57
2023-03-26T20:29:06.992Z,7.53
2023-03-26T20:31:34.323Z,5.55
2023-03-26T20:34:02.628Z,4.78
2023-03-26T20:36:34.126Z,6.07
2023-03-26T20:39:06.184Z,6.07
2023-03-26T20:41:33.918Z,8.40
2023-03-26T20:44:03.520Z,9.50
2023-03-26T20:46:31.861Z,3.88
2023-03-26T20:48:59.990Z,13.38
2023-03-26T20:51:30.859Z,9.25
2023-03-26T20:53:58.017Z,10.32
2023-03-26T20:56:25.147Z,10.20
2023-03-26T20:59:09.932Z,4.10
2023-03-26T21:01:38.667Z,4.63
2023-03-26T21:04:06.350Z,5.47
2023-03-26T21:06:33.592Z,7.72
2023-03-26T21:09:00.938Z,9.18
2023-03-26T21:11:46.366Z,10.32
2023-03-26T21:14:17.568Z,10.30
2023-03-26T21:16:44.827Z,9.10
2023-03-26T21:19:12.300Z,10.93
2023-03-26T21:21:47.801Z,5.28
2023-03-26T21:24:20.142Z,5.75
2023-03-26T21:27:02.580Z,8.82
2023-03-26T21:29:29.822Z,6.78
2023-03-26T21:31:57.128Z,7.68
2023-03-26T21:34:24.388Z,8.50
2023-03-26T21:36:51.752Z,13.52
2023-03-26T21:39:19.047Z,8.73
2023-03-26T21:42:04.933Z,6.03
2023-03-26T21:44:33.557Z,10.63
2023-03-26T21:47:01.171Z,4.18
2023-03-26T21:49:28.519Z,11.30
2023-03-26T21:51:55.849Z,7.82
2023-03-26T21:54:23.069Z,4.82
2023-03-26T21:56:53.827Z,6.28
2023-03-26T21:59:33.699Z,7.47
2023-03-26T22:02:10.894Z,6.93
2023-03-26T22:04:54.463Z,9.68
2023-03-26T22:07:24.537Z,7.78
2023-03-26T22:09:52.076Z,6.50
2023-03-26T22:12:19.196Z,7.63
2023-03-26T22:14:46.313Z,10.40
2023-03-26T22:17:13.486Z,5.05
2023-03-26T22:19:40.707Z,4.35
2023-03-26T22:22:07.785Z,6.38
2023-03-26T22:24:34.844Z,6.53
2023-03-26T22:27:01.954Z,5.18
2023-03-26T22:29:29.150Z,6.88
2023-03-26T22:31:56.297Z,13.55
2023-03-26T22:34:23.568Z,2.80
2023-03-26T22:36:50.658Z,4.07
2023-03-26T22:39:18.168Z,4.70
2023-03-26T22:41:45.318Z,4.63
2023-03-26T22:44:19.763Z,6.68
2023-03-26T22:46:49.319Z,5.88
2023-03-26T22:49:16.789Z,8.65
2023-03-26T22:51:44.373Z,4.88
2023-03-26T22:54:11.450Z,7.90
2023-03-26T22:56:38.630Z,7.60
2023-03-26T22:59:05.855Z,9.07
2023-03-26T23:01:33.052Z,6.70
2023-03-26T23:04:00.211Z,4.82
2023-03-26T23:06:27.355Z,4.72
2023-03-26T23:08:56.863Z,7.93
2023-03-26T23:11:24.219Z,6.78
2023-03-26T23:13:51.708Z,3.65
2023-03-26T23:16:21.441Z,3.30
2023-03-26T23:18:48.935Z,3.50
2023-03-26T23:21:18.082Z,8.73
2023-03-26T23:23:45.607Z,7.40
2023-03-26T23:26:12.854Z,7.82
2023-03-26T23:28:40.923Z,6.90
2023-03-26T23:31:09.303Z,7.53
2023-03-26T23:33:37.251Z,4.95
2023-03-26T23:36:08.768Z,8.18
2023-03-26T23:38:43.432Z,4.00
2023-03-26T23:41:14.808Z,6.82
2023-03-26T23:43:54.358Z,6.22
2023-03-26T23:46:23.448Z,6.72
2023-03-26T23:48:51.116Z,8.05
2023-03-26T23:51:21.654Z,2.65
2023-03-26T23:53:49.321Z,3.90
2023-03-26T23:56:17.137Z,7.20
2023-03-26T23:58:44.385Z,6.88
